ETGG

Gluecksburg / Meierwik Airport

Gluecksburg, Germany
METAR ETGG 171320Z 14007KT 3800 -DZ BR BKN013 01/M01 Q1018 GRN
Observed Flight Rules
Dec-17 @ 13:20 UTC (an hour ago) Instrument Flight Rules
Wind Visibility Clouds Conditions
140° at 7 knots 3,798 meters
  • Broken at 1,300' AGL
  • Light Drizzle
  • Mist
Temperatures Readings
Current 1°C / 34°F
Dewpoint -1°C / 30°F
Humidity 87%
Altimeter 30.06" Hg
Pressure 1018 hPa
Elevation 33
METAR ETGG 171320Z 14007KT 3800 -DZ BR BKN013 01/M01 Q1018 GRN
Observed Flight Rules
Dec-17 @ 13:20 UTC
(an hour ago)
IFR
Wind Visibility
140° at 7 knots 3,798 meters
Clouds
  • Broken at 1,300' AGL
Conditions
  • Light Drizzle
  • Mist
Temperature Dewpoint
1°C / 34°F -1°C / 30°F
Humidity Altimeter Pressure
87% 30.06" Hg 1018 hPa